Time;durP1;ratioP1;P1;durP2;ratioP2;P2;SDS_P1;SDS_P2;PMS_P1;PMS_P2;Temp;Humidity;BMP_temperature;BMP_pressure;BME280_temperature;BME280_humidity;BME280_pressure;Samples;Min_cycle;Max_cycle;Signal;HPM_P1;HPM_P2
2021/06/11 00:02:19;;;;;;;;;2.25;1.75;;;;;22.64;57.50;101783.84;4974719;28;47920;-73
2021/06/11 00:04:44;;;;;;;;;1.00;1.00;;;;;22.62;56.59;101798.38;4975930;28;45610;-73
2021/06/11 00:07:09;;;;;;;;;2.00;2.00;;;;;22.55;56.95;101794.44;4974818;28;46830;-74
2021/06/11 00:09:35;;;;;;;;;3.50;1.00;;;;;22.50;56.80;101802.84;4975067;28;45380;-74
2021/06/11 00:12:02;;;;;;;;;1.00;1.00;;;;;22.50;56.85;101804.66;4974489;28;45553;-75
2021/06/11 00:14:28;;;;;;;;;3.00;3.00;;;;;22.47;57.03;101808.44;4974386;28;45765;-74
2021/06/11 00:16:53;;;;;;;;;2.75;2.75;;;;;22.40;57.35;101799.16;4975167;28;45524;-74
2021/06/11 00:19:19;;;;;;;;;3.00;3.00;;;;;22.35;57.08;101799.50;4975080;28;45563;-74
2021/06/11 00:21:44;;;;;;;;;5.75;2.00;;;;;22.33;57.71;101800.56;4975114;28;45471;-74
2021/06/11 00:24:09;;;;;;;;;2.25;2.00;;;;;22.31;57.10;101798.03;4974651;28;45531;-74
2021/06/11 00:26:35;;;;;;;;;1.00;1.00;;;;;22.23;57.04;101787.03;4974340;28;46881;-74
2021/06/11 00:29:00;;;;;;;;;1.75;1.75;;;;;22.14;57.10;101783.22;4974062;28;45633;-72
2021/06/11 00:31:25;;;;;;;;;3.25;1.25;;;;;22.21;56.83;101801.50;4975286;28;45422;-74
2021/06/11 00:33:51;;;;;;;;;3.25;1.75;;;;;22.17;56.99;101802.69;4976691;28;45593;-75
2021/06/11 00:36:16;;;;;;;;;1.50;1.00;;;;;22.12;57.24;101798.53;4973562;28;47236;-72
2021/06/11 00:38:42;;;;;;;;;1.50;1.50;;;;;22.10;57.94;101795.13;4974319;28;45643;-73
2021/06/11 00:41:07;;;;;;;;;2.50;1.75;;;;;22.08;57.65;101799.72;4974849;28;45378;-74
2021/06/11 00:43:32;;;;;;;;;1.50;1.50;;;;;22.06;57.66;101801.66;4974806;28;45527;-74
2021/06/11 00:45:58;;;;;;;;;2.00;2.00;;;;;21.97;58.26;101786.25;4974363;28;46304;-74
2021/06/11 00:48:23;;;;;;;;;3.00;2.75;;;;;22.00;57.78;101798.56;4974318;28;45538;-74
2021/06/11 00:50:48;;;;;;;;;5.00;2.50;;;;;21.95;57.62;101798.91;4974736;28;45568;-74
2021/06/11 00:53:16;;;;;;;;;2.25;2.00;;;;;21.93;58.36;101802.69;4975208;28;45423;-74
2021/06/11 00:55:45;;;;;;;;;2.25;2.25;;;;;21.89;57.99;101800.22;4974886;28;46767;-74
2021/06/11 00:58:15;;;;;;;;;2.25;1.75;;;;;21.84;57.84;101796.19;4973089;28;45705;-74
2021/06/11 01:00:41;;;;;;;;;2.00;2.00;;;;;21.81;58.12;101799.06;4974319;28;45525;-74
2021/06/11 01:03:07;;;;;;;;;2.25;1.75;;;;;21.78;58.24;101799.31;4974534;28;45403;-74
2021/06/11 01:05:33;;;;;;;;;1.00;1.00;;;;;21.75;57.95;101796.84;4974144;28;45316;-72
2021/06/11 01:08:00;;;;;;;;;2.50;1.00;;;;;21.71;57.82;101792.69;4974219;28;45363;-74
2021/06/11 01:10:26;;;;;;;;;2.00;1.00;;;;;21.66;58.41;101800.19;4975171;28;45443;-73
2021/06/11 01:12:54;;;;;;;;;0.00;0.00;;;;;21.63;57.89;101801.28;4973911;28;45490;-73
2021/06/11 01:15:21;;;;;;;;;1.25;1.25;;;;;21.59;58.48;101795.28;4974036;28;46850;-74
2021/06/11 01:17:47;;;;;;;;;1.75;1.25;;;;;21.58;57.95;101792.75;4974005;28;45462;-74
2021/06/11 01:20:15;;;;;;;;;0.75;0.75;;;;;21.55;58.40;101793.78;4973676;28;45404;-73
2021/06/11 01:23:03;;;;;;;;;3.50;2.75;;;;;21.52;58.31;101793.19;4974986;28;45515;-74
2021/06/11 01:25:51;;;;;;;;;2.00;2.00;;;;;21.50;58.17;101795.09;4974545;28;46789;-74
2021/06/11 01:28:17;;;;;;;;;1.00;1.00;;;;;21.46;58.85;101793.63;4974103;28;45563;-72
2021/06/11 01:30:43;;;;;;;;;1.00;1.00;;;;;21.45;58.67;101797.25;4973889;28;45520;-74
2021/06/11 01:33:10;;;;;;;;;0.50;0.50;;;;;21.42;58.94;101798.34;4974517;28;45457;-74
2021/06/11 01:35:42;;;;;;;;;0.00;0.00;;;;;21.36;59.16;101793.44;4973555;28;46625;-74
2021/06/11 01:38:13;;;;;;;;;1.00;1.00;;;;;21.35;58.85;101797.94;4973068;28;45355;-74
2021/06/11 01:40:41;;;;;;;;;1.00;1.00;;;;;21.32;58.80;101791.94;4974351;28;45574;-74
2021/06/11 01:43:07;;;;;;;;;1.50;1.50;;;;;21.26;58.54;101795.03;4973822;28;45486;-73
2021/06/11 01:45:33;;;;;;;;;3.00;2.00;;;;;21.23;59.20;101777.38;4973387;28;45294;-74
2021/06/11 01:47:59;;;;;;;;;4.25;2.00;;;;;21.22;59.51;101789.03;4974084;28;45400;-75
2021/06/11 01:50:30;;;;;;;;;3.00;1.25;;;;;21.20;58.90;101790.13;4973584;28;45345;-74
2021/06/11 01:52:58;;;;;;;;;2.50;2.00;;;;;21.17;59.00;101784.97;4973778;28;45440;-73
2021/06/11 01:55:25;;;;;;;;;1.00;1.00;;;;;21.13;59.20;101787.00;4973934;28;45949;-74
2021/06/11 01:57:52;;;;;;;;;1.00;1.00;;;;;21.12;59.20;101785.28;4973640;28;45382;-74
2021/06/11 02:00:18;;;;;;;;;1.00;1.00;;;;;21.09;59.21;101778.38;4973205;28;45531;-74
2021/06/11 02:02:44;;;;;;;;;2.00;2.00;;;;;21.09;59.70;101785.53;4976826;28;45560;-74
2021/06/11 02:05:10;;;;;;;;;2.75;2.00;;;;;21.09;59.71;101786.38;4975961;28;46500;-74
2021/06/11 02:07:36;;;;;;;;;2.50;1.00;;;;;21.07;60.19;101779.41;4977951;28;45608;-74
2021/06/11 02:10:07;;;;;;;;;1.00;1.00;;;;;21.02;60.05;101778.88;4976689;28;45395;-73
2021/06/11 02:12:33;;;;;;;;;1.25;1.25;;;;;20.99;59.68;101782.66;4977296;28;45460;-74
2021/06/11 02:15:00;;;;;;;;;4.25;2.00;;;;;21.00;60.21;101780.81;4976784;28;46562;-74
2021/06/11 02:17:25;;;;;;;;;2.00;1.75;;;;;20.96;59.85;101779.31;4976125;28;45502;-74
2021/06/11 02:19:53;;;;;;;;;4.25;1.25;;;;;20.92;60.51;101770.66;4976826;28;45819;-73
2021/06/11 02:22:18;;;;;;;;;1.00;1.00;;;;;20.90;60.26;101772.59;4976114;28;45589;-74
2021/06/11 02:24:44;;;;;;;;;1.50;1.00;;;;;20.89;60.23;101776.25;4976298;28;45422;-75
2021/06/11 02:27:11;;;;;;;;;3.75;2.00;;;;;20.89;60.35;101775.38;4976601;28;45349;-74
2021/06/11 02:29:37;;;;;;;;;2.00;2.00;;;;;20.85;60.53;101766.72;4975986;28;45366;-74
2021/06/11 02:32:04;;;;;;;;;2.00;2.00;;;;;20.84;60.64;101773.88;4977103;28;45418;-74
2021/06/11 02:34:30;;;;;;;;;2.50;1.00;;;;;20.81;61.06;101770.56;4976751;28;45664;-74
2021/06/11 02:36:56;;;;;;;;;2.25;1.00;;;;;20.75;60.72;101761.16;4971202;28;45511;-74
2021/06/11 02:39:22;;;;;;;;;2.75;2.75;;;;;20.76;61.23;101764.69;4976172;28;45359;-74
2021/06/11 02:41:49;;;;;;;;;1.75;1.75;;;;;20.76;61.53;101768.19;4975750;28;45549;-74
2021/06/11 02:44:15;;;;;;;;;1.00;1.00;;;;;20.74;61.31;101763.94;4975831;28;46651;-74
2021/06/11 02:46:50;;;;;;;;;1.25;1.25;;;;;20.70;61.49;101757.09;4976890;28;45716;-74
2021/06/11 02:49:34;;;;;;;;;1.50;1.50;;;;;20.71;61.62;101765.00;4977280;28;45490;-74
2021/06/11 02:52:04;;;;;;;;;2.75;2.75;;;;;20.65;61.77;101757.41;4974434;28;45477;-75
2021/06/11 02:54:37;;;;;;;;;2.50;2.00;;;;;20.64;62.19;101757.53;4975562;28;47669;-73
2021/06/11 02:57:18;;;;;;;;;2.00;1.50;;;;;20.61;61.79;101763.06;4971298;28;45751;-75
2021/06/11 02:59:47;;;;;;;;;0.75;0.75;;;;;20.57;61.80;101762.44;4976057;28;45478;-75
2021/06/11 03:02:17;;;;;;;;;3.00;1.25;;;;;20.54;62.59;101766.16;4975953;28;45447;-75
2021/06/11 03:04:44;;;;;;;;;2.00;2.00;;;;;20.52;62.01;101759.22;4977037;28;46543;-75
2021/06/11 03:07:16;;;;;;;;;2.00;1.00;;;;;20.48;62.82;101755.91;4976089;28;45418;-75
2021/06/11 03:09:43;;;;;;;;;3.50;1.25;;;;;20.41;62.83;101751.94;4975676;28;45494;-75
2021/06/11 03:12:10;;;;;;;;;2.75;2.75;;;;;20.45;62.89;101763.22;4975963;28;45550;-72
2021/06/11 03:14:37;;;;;;;;;1.25;1.25;;;;;20.41;62.65;101751.03;4975013;28;46648;-74
2021/06/11 03:17:04;;;;;;;;;2.00;2.00;;;;;20.39;62.73;101753.81;4975730;28;45543;-74
2021/06/11 03:19:33;;;;;;;;;2.25;2.25;;;;;20.37;62.45;101755.75;4976949;28;45386;-74
2021/06/11 03:22:02;;;;;;;;;2.75;1.50;;;;;20.36;62.60;101759.41;4975955;28;45375;-74
2021/06/11 03:24:33;;;;;;;;;1.75;1.75;;;;;20.32;62.93;101755.22;4975178;28;48128;-74
2021/06/11 03:27:01;;;;;;;;;1.50;1.50;;;;;20.31;62.61;101756.19;4975220;28;45534;-74
2021/06/11 03:29:36;;;;;;;;;1.00;1.00;;;;;20.28;62.28;101756.38;4976093;28;45608;-75
2021/06/11 03:32:07;;;;;;;;;3.00;1.00;;;;;20.23;62.88;101747.81;4975528;28;45511;-74
2021/06/11 03:34:41;;;;;;;;;1.25;1.00;;;;;20.25;62.84;101759.22;4976000;28;46514;-75
2021/06/11 03:37:12;;;;;;;;;1.50;1.50;;;;;20.25;62.79;101760.09;4974809;28;45575;-75
2021/06/11 03:39:51;;;;;;;;;1.50;1.50;;;;;20.23;62.58;101758.50;4976175;28;45514;-75
2021/06/11 03:42:17;;;;;;;;;2.00;2.00;;;;;20.22;62.93;101756.78;4972949;28;45550;-75
2021/06/11 03:44:47;;;;;;;;;3.50;2.75;;;;;20.19;62.87;101762.31;4976060;28;45404;-75
2021/06/11 03:47:15;;;;;;;;;3.00;3.00;;;;;20.17;62.83;101748.25;4975027;28;46968;-75
2021/06/11 03:49:43;;;;;;;;;2.50;1.50;;;;;20.15;62.77;101755.47;4975960;28;45546;-74
2021/06/11 03:52:11;;;;;;;;;2.50;2.00;;;;;20.15;62.92;101756.34;4974928;28;45450;-74
2021/06/11 03:54:39;;;;;;;;;1.25;1.25;;;;;20.16;62.84;101760.72;4975311;28;46201;-75
2021/06/11 03:57:07;;;;;;;;;3.75;2.00;;;;;20.17;63.15;101767.78;4975707;28;45752;-75
2021/06/11 03:59:34;;;;;;;;;2.50;1.00;;;;;20.15;62.77;101761.69;4975652;28;45510;-75
2021/06/11 04:02:00;;;;;;;;;2.00;2.00;;;;;20.16;63.39;101760.72;4975603;28;45429;-75
2021/06/11 04:04:26;;;;;;;;;2.75;2.75;;;;;20.15;62.95;101764.38;4975367;28;45654;-75
2021/06/11 04:07:00;;;;;;;;;2.00;2.00;;;;;20.17;62.49;101761.59;4974311;28;45634;-75
2021/06/11 04:09:29;;;;;;;;;1.50;1.50;;;;;20.17;63.10;101764.25;4975201;28;45380;-75
2021/06/11 04:12:01;;;;;;;;;3.00;3.00;;;;;20.14;62.77;101759.97;4975117;28;45512;-74
2021/06/11 04:14:35;;;;;;;;;3.75;1.50;;;;;20.15;62.58;101764.38;4975290;28;46551;-74
2021/06/11 04:17:04;;;;;;;;;3.25;1.25;;;;;20.16;62.84;101770.56;4975218;28;45850;-74
2021/06/11 04:19:40;;;;;;;;;0.75;0.75;;;;;20.16;63.36;101759.88;4976017;28;45494;-75
2021/06/11 04:22:07;;;;;;;;;2.75;2.00;;;;;20.17;63.52;101765.09;4974758;28;45522;-74
2021/06/11 04:24:36;;;;;;;;;1.50;1.50;;;;;20.17;63.28;101769.59;4973850;28;45495;-74
2021/06/11 04:27:02;;;;;;;;;2.75;2.75;;;;;20.18;63.34;101765.97;4974700;28;45387;-74
2021/06/11 04:29:31;;;;;;;;;3.25;2.50;;;;;20.19;63.55;101763.19;4974644;28;45403;-75
2021/06/11 04:31:56;;;;;;;;;5.00;4.00;;;;;20.21;63.77;101765.75;4974617;28;45336;-75
2021/06/11 04:34:24;;;;;;;;;1.50;1.50;;;;;20.19;63.42;101765.00;4974545;28;46294;-74
2021/06/11 04:36:50;;;;;;;;;3.00;3.00;;;;;20.24;63.76;101769.06;4974109;28;46007;-74
2021/06/11 04:39:15;;;;;;;;;2.50;2.50;;;;;20.25;63.61;101767.25;4975181;28;45499;-74
2021/06/11 04:41:41;;;;;;;;;1.75;1.75;;;;;20.28;64.01;101764.38;4975081;28;45354;-75
2021/06/11 04:44:07;;;;;;;;;2.25;2.25;;;;;20.29;63.46;101768.75;4973818;28;45624;-74
2021/06/11 04:46:34;;;;;;;;;4.75;3.50;;;;;20.31;63.48;101766.84;4974679;28;45442;-75
2021/06/11 04:49:00;;;;;;;;;2.00;2.00;;;;;20.37;63.38;101777.13;4975121;28;45436;-75
2021/06/11 04:51:26;;;;;;;;;2.00;2.00;;;;;20.42;63.82;101774.13;4974163;28;45464;-75
2021/06/11 04:53:52;;;;;;;;;3.00;2.00;;;;;20.44;63.96;101765.03;4973968;28;47437;-75
2021/06/11 04:56:18;;;;;;;;;2.50;2.00;;;;;20.49;63.73;101773.63;4974249;28;45391;-74
2021/06/11 04:58:43;;;;;;;;;3.00;3.00;;;;;20.54;63.40;101773.31;4975352;28;45532;-75
2021/06/11 05:01:10;;;;;;;;;0.75;0.75;;;;;20.61;63.49;101769.25;4974076;28;45498;-74
2021/06/11 05:03:36;;;;;;;;;2.25;2.25;;;;;20.70;63.25;101773.97;4974387;28;45536;-75
2021/06/11 05:06:03;;;;;;;;;2.00;2.00;;;;;20.86;62.63;101773.75;4973661;28;45758;-75
2021/06/11 05:08:28;;;;;;;;;2.75;2.00;;;;;20.91;62.55;101773.44;4974425;28;45609;-75
2021/06/11 05:10:55;;;;;;;;;2.25;2.25;;;;;20.95;62.42;101769.59;4974451;28;45544;-75
2021/06/11 05:13:20;;;;;;;;;2.25;2.00;;;;;20.94;62.34;101771.44;4974624;28;46224;-75
2021/06/11 05:15:46;;;;;;;;;2.00;2.00;;;;;21.04;62.56;101788.53;4974139;28;45479;-76
2021/06/11 05:18:11;;;;;;;;;2.00;2.00;;;;;21.09;62.36;101790.88;4973070;28;45459;-76
2021/06/11 05:20:40;;;;;;;;;3.50;2.00;;;;;21.12;62.29;101793.31;4973758;28;45540;-75
2021/06/11 05:23:06;;;;;;;;;3.00;3.00;;;;;21.19;62.28;101793.72;4973912;28;46284;-74
2021/06/11 05:25:32;;;;;;;;;3.00;2.00;;;;;21.23;61.69;101785.38;4972541;28;45411;-73
2021/06/11 05:27:58;;;;;;;;;1.75;1.75;;;;;21.25;61.67;101785.31;4973947;28;45404;-75
2021/06/11 05:30:25;;;;;;;;;1.00;1.00;;;;;21.37;62.19;101800.50;4974048;28;45555;-75
2021/06/11 05:32:51;;;;;;;;;3.00;3.00;;;;;21.42;61.82;101798.34;4973807;28;45396;-74
2021/06/11 05:35:17;;;;;;;;;2.00;1.75;;;;;21.52;61.61;101794.03;4973520;28;45734;-75
2021/06/11 05:37:42;;;;;;;;;2.00;2.00;;;;;21.63;61.71;101795.94;4977771;28;45335;-73
2021/06/11 05:40:08;;;;;;;;;3.00;3.00;;;;;21.71;60.56;101798.88;4977720;28;45332;-74
2021/06/11 05:42:33;;;;;;;;;3.50;3.00;;;;;21.85;61.46;101805.91;4977256;28;46188;-74
2021/06/11 05:44:59;;;;;;;;;3.25;3.25;;;;;22.25;60.52;101794.97;4977045;28;45505;-74
2021/06/11 05:47:25;;;;;;;;;1.50;1.50;;;;;23.36;59.41;101806.88;4977339;28;45391;-74
2021/06/11 05:49:50;;;;;;;;;2.00;2.00;;;;;24.68;57.25;101802.22;4977637;28;45520;-75
2021/06/11 05:52:15;;;;;;;;;4.25;2.00;;;;;26.01;55.36;101799.38;4977055;28;46488;-74
2021/06/11 05:54:41;;;;;;;;;2.00;2.00;;;;;27.26;52.91;101797.53;4977487;28;45731;-76
2021/06/11 05:57:06;;;;;;;;;4.00;2.75;;;;;28.27;50.55;101802.84;4976875;28;45453;-75
2021/06/11 05:59:32;;;;;;;;;2.75;2.50;;;;;28.58;49.02;101792.50;4977534;28;45410;-75
2021/06/11 06:01:57;;;;;;;;;2.50;1.00;;;;;28.42;48.39;101801.31;4975896;28;46435;-75
2021/06/11 06:04:23;;;;;;;;;3.00;1.25;;;;;28.30;48.48;101797.16;4977163;28;45372;-75
2021/06/11 06:06:48;;;;;;;;;1.50;1.25;;;;;28.15;47.85;101804.09;4977124;28;45556;-75
2021/06/11 06:09:13;;;;;;;;;3.00;2.50;;;;;27.81;48.02;101805.59;4977062;28;45670;-75
2021/06/11 06:11:38;;;;;;;;;5.00;2.25;;;;;27.50;48.24;101804.22;4977153;28;46551;-75
2021/06/11 06:14:04;;;;;;;;;2.25;2.00;;;;;27.26;48.26;101802.91;4976948;28;45500;-75
2021/06/11 06:16:30;;;;;;;;;1.50;1.50;;;;;26.95;49.00;101813.09;4976096;28;45498;-74
2021/06/11 06:18:56;;;;;;;;;1.00;1.00;;;;;26.62;48.82;101816.25;4976065;28;45584;-73
2021/06/11 06:21:21;;;;;;;;;2.00;2.00;;;;;26.16;49.29;101821.38;4975415;28;45502;-74
2021/06/11 06:23:46;;;;;;;;;2.00;2.00;;;;;25.80;49.77;101819.34;4976534;28;45345;-73
2021/06/11 06:26:12;;;;;;;;;2.00;2.00;;;;;25.52;50.39;101819.06;4975966;28;45589;-74
2021/06/11 06:28:37;;;;;;;;;1.50;1.50;;;;;25.32;50.74;101812.81;4976723;28;45451;-73
2021/06/11 06:31:02;;;;;;;;;4.75;1.25;;;;;25.08;50.99;101806.88;4975468;28;45494;-73
2021/06/11 06:33:28;;;;;;;;;4.00;2.50;;;;;24.96;50.80;101828.44;4976389;28;45429;-73
2021/06/11 06:35:53;;;;;;;;;3.00;1.25;;;;;24.78;50.86;101818.41;4975077;28;45390;-74
2021/06/11 06:38:19;;;;;;;;;3.25;2.00;;;;;24.69;50.96;101823.63;4977212;28;45594;-73
2021/06/11 06:40:47;;;;;;;;;2.25;2.25;;;;;24.61;51.56;101827.94;4976345;28;47143;-73
2021/06/11 06:43:12;;;;;;;;;2.75;1.75;;;;;24.51;51.91;101830.53;4976154;28;45743;-74
2021/06/11 06:45:38;;;;;;;;;3.75;2.00;;;;;24.43;51.96;101830.31;4975376;28;45441;-73
2021/06/11 06:48:04;;;;;;;;;2.00;2.00;;;;;24.34;52.29;101828.41;4975960;28;45549;-73
2021/06/11 06:50:30;;;;;;;;;2.00;2.00;;;;;24.30;52.69;101827.78;4976064;28;46260;-73
2021/06/11 06:52:56;;;;;;;;;4.75;2.00;;;;;24.25;52.34;101827.31;4976888;28;45407;-73
2021/06/11 06:55:23;;;;;;;;;3.00;3.00;;;;;24.22;53.09;101832.94;4976272;28;45508;-73
2021/06/11 06:57:49;;;;;;;;;2.25;2.25;;;;;24.19;52.38;101828.69;4975877;28;45506;-73
2021/06/11 07:00:15;;;;;;;;;2.75;2.00;;;;;24.18;52.51;101829.69;4975820;28;46466;-73
2021/06/11 07:02:40;;;;;;;;;4.00;2.00;;;;;24.15;52.76;101829.06;4978835;28;45533;-73
2021/06/11 07:05:06;;;;;;;;;2.75;2.50;;;;;24.16;53.05;101828.94;4974804;28;45926;-73
2021/06/11 07:07:32;;;;;;;;;2.75;2.00;;;;;24.16;52.69;101833.47;4974322;28;45363;-73
2021/06/11 07:09:57;;;;;;;;;3.25;2.00;;;;;24.17;53.41;101835.16;4975335;28;46478;-74
2021/06/11 07:12:24;;;;;;;;;2.00;2.00;;;;;24.18;53.09;101837.75;4974777;28;47477;-74
2021/06/11 07:14:49;;;;;;;;;45.00;34.25;;;;;24.19;52.97;101834.06;4974903;28;45759;-74
2021/06/11 07:17:15;;;;;;;;;9.25;7.50;;;;;24.26;53.06;101828.19;4975283;28;45328;-74
2021/06/11 07:19:40;;;;;;;;;2.25;2.00;;;;;24.34;53.05;101833.78;4975155;28;46640;-75
2021/06/11 07:22:07;;;;;;;;;2.25;2.25;;;;;24.41;52.38;101837.66;4975618;28;45451;-75
2021/06/11 07:24:33;;;;;;;;;2.00;2.00;;;;;24.50;52.39;101838.75;4974894;28;45453;-75
2021/06/11 07:27:00;;;;;;;;;1.25;1.25;;;;;24.56;52.20;101833.69;4972251;28;45546;-75
2021/06/11 07:29:25;;;;;;;;;1.75;1.75;;;;;24.66;52.27;101831.09;4980090;28;46630;-74
2021/06/11 07:31:51;;;;;;;;;1.00;1.00;;;;;24.80;51.21;101840.66;4975212;28;45523;-75
2021/06/11 07:34:16;;;;;;;;;1.25;1.00;;;;;24.98;51.39;101831.00;4972967;28;45554;-75
2021/06/11 07:36:41;;;;;;;;;1.00;1.00;;;;;25.33;50.66;101829.78;4973149;28;45901;-75
2021/06/11 07:39:07;;;;;;;;;1.50;1.50;;;;;25.57;50.47;101834.81;4972789;28;46223;-75
2021/06/11 07:41:32;;;;;;;;;1.50;1.25;;;;;25.84;50.41;101831.53;4972570;28;45735;-75
2021/06/11 07:43:57;;;;;;;;;1.00;1.00;;;;;27.15;50.38;101827.41;4972626;28;45510;-75
2021/06/11 07:46:23;;;;;;;;;1.00;1.00;;;;;28.09;47.66;101828.03;4972411;28;45666;-74
2021/06/11 07:48:49;;;;;;;;;1.75;1.75;;;;;28.11;46.49;101818.91;4972828;28;46504;-74
2021/06/11 07:51:14;;;;;;;;;3.50;2.00;;;;;28.06;46.67;101817.53;4971633;28;45560;-74
2021/06/11 07:53:41;;;;;;;;;1.25;1.00;;;;;28.29;46.88;101819.75;4972330;28;45489;-74
2021/06/11 07:56:07;;;;;;;;;3.25;1.00;;;;;29.02;45.49;101830.34;4988302;28;45577;-75
2021/06/11 07:58:32;;;;;;;;;1.00;1.00;;;;;29.83;44.65;101821.75;4971590;28;45767;-74
2021/06/11 08:00:58;;;;;;;;;3.25;1.00;;;;;30.05;43.25;101829.25;4969948;28;48909;-74
2021/06/11 08:03:23;;;;;;;;;1.75;1.75;;;;;30.34;43.34;101833.38;4971824;28;45409;-74
2021/06/11 08:05:48;;;;;;;;;1.00;1.00;;;;;31.49;42.31;101831.34;4971899;28;57830;-75
2021/06/11 08:08:14;;;;;;;;;1.50;1.00;;;;;32.48;40.54;101833.31;4971993;28;45870;-75
2021/06/11 08:10:39;;;;;;;;;1.00;1.00;;;;;34.00;39.39;101830.03;4971028;28;45506;-75
2021/06/11 08:13:06;;;;;;;;;1.75;1.75;;;;;36.08;36.67;101833.94;4970699;28;45527;-76
2021/06/11 08:15:31;;;;;;;;;12.00;8.25;;;;;37.25;35.81;101842.31;4972064;28;45543;-75
2021/06/11 08:17:57;;;;;;;;;0.75;0.75;;;;;39.16;33.19;101844.00;4972862;28;45615;-75
2021/06/11 08:20:22;;;;;;;;;1.00;0.00;;;;;40.26;32.03;101851.25;4972403;28;47111;-76
2021/06/11 08:22:48;;;;;;;;;0.75;0.00;;;;;40.57;30.04;101842.69;4970147;28;45801;-75
2021/06/11 08:25:13;;;;;;;;;0.00;0.00;;;;;39.92;30.15;101848.13;4972182;28;45805;-76
2021/06/11 08:27:39;;;;;;;;;1.50;0.75;;;;;39.66;29.82;101852.94;4968104;28;45705;-76
2021/06/11 08:30:06;;;;;;;;;1.00;1.00;;;;;40.46;29.71;101843.50;4973179;28;45471;-76
2021/06/11 08:32:31;;;;;;;;;0.75;0.75;;;;;42.58;28.89;101855.59;4975075;28;45497;-76
2021/06/11 08:34:57;;;;;;;;;2.25;1.00;;;;;44.72;26.54;101860.03;4974862;28;45766;-76
2021/06/11 08:37:23;;;;;;;;;0.00;0.00;;;;;46.65;25.02;101864.47;4973434;28;45565;-80
2021/06/11 08:39:53;;;;;;;;;0.00;0.00;;;;;48.25;23.38;101865.09;4974709;28;45486;-76
2021/06/11 08:42:30;;;;;;;;;0.00;0.00;;;;;49.05;21.89;101863.72;4977287;28;45509;-74
2021/06/11 08:45:02;;;;;;;;;1.00;1.00;;;;;50.00;21.44;101873.88;4977182;28;45674;-74
2021/06/11 08:47:28;;;;;;;;;0.00;0.00;;;;;51.28;21.27;101872.34;4974739;28;45467;-73
2021/06/11 08:49:55;;;;;;;;;0.00;0.00;;;;;51.90;18.67;101875.41;4976292;28;45498;-76
2021/06/11 08:52:21;;;;;;;;;0.00;0.00;;;;;52.91;18.52;101876.66;4975079;28;45466;-75
2021/06/11 08:54:47;;;;;;;;;1.00;0.00;;;;;54.01;17.72;101873.84;4977274;28;45479;-76
2021/06/11 08:57:14;;;;;;;;;1.25;1.25;;;;;54.95;16.99;101883.97;4977921;28;47205;-76
2021/06/11 08:59:40;;;;;;;;;3.50;1.00;;;;;55.86;15.92;101875.03;4975710;28;45758;-74
2021/06/11 09:02:05;;;;;;;;;0.75;0.75;;;;;56.70;15.60;101875.59;4975438;28;45680;-75
2021/06/11 09:04:40;;;;;;;;;2.00;0.25;;;;;57.23;14.13;101879.34;4978141;28;45577;-76
2021/06/11 09:07:28;;;;;;;;;1.00;1.00;;;;;57.23;14.74;101880.16;4974555;28;46603;-75
2021/06/11 09:10:03;;;;;;;;;0.50;0.50;;;;;57.88;14.45;101876.41;4972552;28;45538;-78
2021/06/11 09:12:37;;;;;;;;;0.00;0.00;;;;;57.96;14.01;101876.28;4972005;28;45502;-75
2021/06/11 09:15:17;;;;;;;;;2.75;2.25;;;;;58.22;13.19;101875.78;4971568;28;45718;-75
2021/06/11 09:17:49;;;;;;;;;2.50;1.25;;;;;57.87;12.66;101872.75;4973648;28;45711;-74
2021/06/11 09:20:20;;;;;;;;;1.00;0.50;;;;;57.54;13.61;101884.34;4972917;28;45579;-73
2021/06/11 09:22:46;;;;;;;;;2.00;1.00;;;;;57.45;13.29;101876.00;4975009;28;45441;-75
2021/06/11 09:25:35;;;;;;;;;0.50;0.50;;;;;56.78;12.93;101871.84;4973288;28;45403;-74
2021/06/11 09:28:08;;;;;;;;;1.00;1.00;;;;;55.93;13.56;101876.13;4972989;28;46267;-75
2021/06/11 09:30:45;;;;;;;;;4.00;1.00;;;;;54.98;14.10;101874.03;4972801;28;45399;-75
2021/06/11 09:33:17;;;;;;;;;2.00;2.00;;;;;54.34;14.55;101860.84;4976247;28;45410;-76
2021/06/11 09:35:45;;;;;;;;;1.75;1.75;;;;;53.62;14.98;101856.84;4973110;28;45570;-77
2021/06/11 09:38:26;;;;;;;;;2.50;1.00;;;;;52.80;15.55;101852.84;4973041;28;47571;-77
2021/06/11 09:40:58;;;;;;;;;2.00;2.00;;;;;51.65;15.95;101859.19;4975487;28;45920;-76
2021/06/11 09:43:28;;;;;;;;;3.50;2.00;;;;;51.03;16.20;101847.66;4968919;28;45400;-76
2021/06/11 09:46:05;;;;;;;;;3.00;1.25;;;;;50.59;16.58;101854.69;4971495;28;45562;-76
2021/06/11 09:48:39;;;;;;;;;2.50;2.00;;;;;50.03;16.72;101842.53;4971249;28;45772;-76
2021/06/11 09:51:18;;;;;;;;;2.00;2.00;;;;;49.88;17.10;101848.38;4970360;28;45667;-75
2021/06/11 09:53:43;;;;;;;;;1.00;1.00;;;;;49.50;17.56;101837.19;4970588;28;46621;-76
2021/06/11 09:56:20;;;;;;;;;2.50;2.50;;;;;49.32;17.40;101838.81;4970582;28;45384;-76
2021/06/11 09:58:45;;;;;;;;;2.00;2.00;;;;;49.29;17.32;101833.84;4970876;28;45817;-76
2021/06/11 10:01:12;;;;;;;;;3.75;2.00;;;;;49.29;17.65;101833.84;4970092;28;45414;-76
2021/06/11 10:03:42;;;;;;;;;3.50;2.25;;;;;48.88;17.40;101839.09;4970044;28;45448;-76
2021/06/11 10:06:09;;;;;;;;;1.50;1.50;;;;;48.14;17.85;101837.56;4970945;28;45667;-75
2021/06/11 10:08:36;;;;;;;;;2.75;2.75;;;;;47.12;18.55;101830.69;4969869;28;46601;-75
2021/06/11 10:11:05;;;;;;;;;4.25;2.00;;;;;46.27;18.69;101838.91;4968230;28;50227;-74
2021/06/11 10:13:32;;;;;;;;;3.00;3.00;;;;;45.28;19.14;101827.03;4970894;28;45571;-75
2021/06/11 10:16:01;;;;;;;;;2.50;2.50;;;;;44.39;20.18;101822.34;4972211;28;45565;-74
2021/06/11 10:18:26;;;;;;;;;3.00;3.00;;;;;43.78;21.03;101833.69;4968693;28;47535;-74
2021/06/11 10:20:52;;;;;;;;;3.00;2.25;;;;;43.23;20.83;101831.94;4969901;28;45533;-75
2021/06/11 10:23:22;;;;;;;;;3.00;2.00;;;;;42.69;20.83;101829.78;4973246;28;45529;-75
2021/06/11 10:25:53;;;;;;;;;2.25;2.25;;;;;41.97;22.33;101830.53;4974507;28;45678;-76
2021/06/11 10:28:22;;;;;;;;;2.00;2.00;;;;;41.46;23.09;101828.69;4974057;28;46196;-76
2021/06/11 10:30:48;;;;;;;;;4.75;4.00;;;;;41.06;23.12;101829.47;4973318;28;45546;-75
2021/06/11 10:33:14;;;;;;;;;3.50;2.00;;;;;40.68;23.51;101830.81;4974804;28;45419;-74
2021/06/11 10:35:48;;;;;;;;;1.00;1.00;;;;;40.31;23.71;101823.84;4974285;28;45428;-76
2021/06/11 10:38:35;;;;;;;;;2.00;2.00;;;;;39.94;24.06;101815.72;4973831;28;45713;-76
2021/06/11 10:41:04;;;;;;;;;5.00;2.50;;;;;39.70;24.68;101812.03;4971238;28;45777;-74
2021/06/11 10:43:36;;;;;;;;;4.50;3.25;;;;;39.46;24.44;101812.97;4973836;28;45443;-74
2021/06/11 10:46:26;;;;;;;;;4.50;3.50;;;;;39.10;25.30;101814.63;4976492;28;45525;-77
2021/06/11 10:49:09;;;;;;;;;3.75;3.75;;;;;38.48;25.16;101816.56;4973637;28;45704;-74
2021/06/11 10:51:36;;;;;;;;;1.25;1.25;;;;;37.85;25.73;101812.78;4972659;28;45939;-74
2021/06/11 10:54:17;;;;;;;;;2.75;2.75;;;;;37.30;25.76;101819.72;4978668;28;45766;-74
2021/06/11 10:56:58;;;;;;;;;2.50;2.00;;;;;36.90;26.78;101808.88;4972136;28;45432;-75
2021/06/11 10:59:38;;;;;;;;;3.75;2.25;;;;;36.70;27.93;101808.91;4961356;28;45372;-74
2021/06/11 11:02:05;;;;;;;;;3.75;2.75;;;;;36.37;28.11;101810.78;4973099;28;45834;-75
2021/06/11 11:04:34;;;;;;;;;2.00;2.00;;;;;36.16;27.82;101812.66;4973276;28;45529;-74
2021/06/11 11:07:22;;;;;;;;;3.75;3.75;;;;;35.97;28.48;101808.00;4972948;28;45482;-76
2021/06/11 11:10:01;;;;;;;;;4.00;2.25;;;;;35.89;28.88;101797.25;4972694;28;46429;-74
2021/06/11 11:12:27;;;;;;;;;5.00;2.50;;;;;35.76;28.90;101800.78;4987711;28;45998;-74
2021/06/11 11:14:54;;;;;;;;;1.50;1.00;;;;;35.64;29.47;101794.22;4973504;28;45646;-74
2021/06/11 11:17:20;;;;;;;;;3.00;3.00;;;;;35.56;28.99;101789.81;4973729;28;45697;-74
2021/06/11 11:19:49;;;;;;;;;3.00;2.00;;;;;35.43;29.39;101790.56;4973734;28;47294;-74
2021/06/11 11:22:38;;;;;;;;;4.75;3.75;;;;;35.36;29.45;101791.59;4969211;28;45695;-74
2021/06/11 11:25:12;;;;;;;;;2.50;2.50;;;;;35.26;29.20;101787.34;4993635;28;45529;-75
2021/06/11 11:27:38;;;;;;;;;2.75;2.25;;;;;35.25;30.19;101788.38;4975028;28;45830;-76
2021/06/11 11:30:04;;;;;;;;;4.75;3.75;;;;;35.24;29.96;101785.88;4972108;28;46499;-76